sensor_id;sensor_type;location;lat;lon;timestamp;P1;durP1;ratioP1;P2;durP2;ratioP2
58468;SDS011;44257;44.804;10.220;2022-11-03T00:01:40;15.38;;;8.27;;
58468;SDS011;44257;44.804;10.220;2022-11-03T00:04:11;14.10;;;8.13;;
58468;SDS011;44257;44.804;10.220;2022-11-03T00:06:38;13.68;;;7.93;;
58468;SDS011;44257;44.804;10.220;2022-11-03T00:09:06;13.90;;;7.53;;
58468;SDS011;44257;44.804;10.220;2022-11-03T00:11:34;16.40;;;9.27;;
58468;SDS011;44257;44.804;10.220;2022-11-03T00:14:01;22.85;;;9.73;;
58468;SDS011;44257;44.804;10.220;2022-11-03T00:16:27;14.70;;;7.60;;
58468;SDS011;44257;44.804;10.220;2022-11-03T00:18:53;14.15;;;7.65;;
58468;SDS011;44257;44.804;10.220;2022-11-03T00:21:19;15.70;;;8.15;;
58468;SDS011;44257;44.804;10.220;2022-11-03T00:23:45;14.43;;;8.57;;
58468;SDS011;44257;44.804;10.220;2022-11-03T00:26:21;11.77;;;6.72;;
58468;SDS011;44257;44.804;10.220;2022-11-03T00:28:52;12.32;;;6.90;;
58468;SDS011;44257;44.804;10.220;2022-11-03T00:31:22;14.02;;;7.97;;
58468;SDS011;44257;44.804;10.220;2022-11-03T00:33:52;15.48;;;8.02;;
58468;SDS011;44257;44.804;10.220;2022-11-03T00:36:19;11.52;;;8.52;;
58468;SDS011;44257;44.804;10.220;2022-11-03T00:38:49;15.45;;;9.07;;
58468;SDS011;44257;44.804;10.220;2022-11-03T00:41:17;14.70;;;8.10;;
58468;SDS011;44257;44.804;10.220;2022-11-03T00:43:45;13.30;;;7.90;;
58468;SDS011;44257;44.804;10.220;2022-11-03T00:46:11;14.25;;;8.18;;
58468;SDS011;44257;44.804;10.220;2022-11-03T00:48:37;11.90;;;8.27;;
58468;SDS011;44257;44.804;10.220;2022-11-03T00:53:39;13.85;;;9.10;;
58468;SDS011;44257;44.804;10.220;2022-11-03T00:56:08;15.80;;;7.90;;
58468;SDS011;44257;44.804;10.220;2022-11-03T00:58:35;11.30;;;8.63;;
58468;SDS011;44257;44.804;10.220;2022-11-03T01:01:03;21.30;;;8.40;;
58468;SDS011;44257;44.804;10.220;2022-11-03T01:03:32;17.90;;;8.88;;
58468;SDS011;44257;44.804;10.220;2022-11-03T01:06:01;17.63;;;8.77;;
58468;SDS011;44257;44.804;10.220;2022-11-03T01:08:48;19.83;;;10.43;;
58468;SDS011;44257;44.804;10.220;2022-11-03T01:11:14;21.13;;;10.55;;
58468;SDS011;44257;44.804;10.220;2022-11-03T01:14:01;14.93;;;9.73;;
58468;SDS011;44257;44.804;10.220;2022-11-03T01:16:27;15.55;;;9.43;;
58468;SDS011;44257;44.804;10.220;2022-11-03T01:18:54;12.60;;;8.77;;
58468;SDS011;44257;44.804;10.220;2022-11-03T01:21:20;22.33;;;11.77;;
58468;SDS011;44257;44.804;10.220;2022-11-03T01:23:47;16.55;;;10.68;;
58468;SDS011;44257;44.804;10.220;2022-11-03T01:26:13;16.02;;;9.80;;
58468;SDS011;44257;44.804;10.220;2022-11-03T01:28:41;18.23;;;9.30;;
58468;SDS011;44257;44.804;10.220;2022-11-03T01:31:12;21.15;;;8.45;;
58468;SDS011;44257;44.804;10.220;2022-11-03T01:33:44;14.68;;;8.57;;
58468;SDS011;44257;44.804;10.220;2022-11-03T01:36:11;14.18;;;9.25;;
58468;SDS011;44257;44.804;10.220;2022-11-03T01:38:38;19.77;;;9.30;;
58468;SDS011;44257;44.804;10.220;2022-11-03T01:41:05;13.90;;;8.85;;
58468;SDS011;44257;44.804;10.220;2022-11-03T01:43:34;18.77;;;9.32;;
58468;SDS011;44257;44.804;10.220;2022-11-03T01:46:14;21.48;;;9.43;;
58468;SDS011;44257;44.804;10.220;2022-11-03T01:48:57;21.70;;;9.73;;
58468;SDS011;44257;44.804;10.220;2022-11-03T01:51:27;19.10;;;12.25;;
58468;SDS011;44257;44.804;10.220;2022-11-03T01:53:56;16.10;;;8.95;;
58468;SDS011;44257;44.804;10.220;2022-11-03T01:56:23;20.15;;;11.00;;
58468;SDS011;44257;44.804;10.220;2022-11-03T01:58:51;15.82;;;9.18;;
58468;SDS011;44257;44.804;10.220;2022-11-03T02:01:19;18.20;;;12.02;;
58468;SDS011;44257;44.804;10.220;2022-11-03T02:03:48;17.42;;;9.63;;
58468;SDS011;44257;44.804;10.220;2022-11-03T02:06:18;16.30;;;9.18;;
58468;SDS011;44257;44.804;10.220;2022-11-03T02:08:53;17.77;;;10.05;;
58468;SDS011;44257;44.804;10.220;2022-11-03T02:11:24;19.52;;;11.95;;
58468;SDS011;44257;44.804;10.220;2022-11-03T02:14:11;16.30;;;8.73;;
58468;SDS011;44257;44.804;10.220;2022-11-03T02:16:38;20.30;;;10.80;;
58468;SDS011;44257;44.804;10.220;2022-11-03T02:19:07;24.13;;;11.55;;
58468;SDS011;44257;44.804;10.220;2022-11-03T02:27:57;15.90;;;9.75;;
58468;SDS011;44257;44.804;10.220;2022-11-03T02:30:25;21.67;;;10.73;;
58468;SDS011;44257;44.804;10.220;2022-11-03T02:32:58;19.52;;;10.93;;
58468;SDS011;44257;44.804;10.220;2022-11-03T02:35:57;16.75;;;10.00;;
58468;SDS011;44257;44.804;10.220;2022-11-03T02:38:30;23.52;;;10.10;;
58468;SDS011;44257;44.804;10.220;2022-11-03T02:41:02;13.45;;;9.45;;
58468;SDS011;44257;44.804;10.220;2022-11-03T02:43:31;17.23;;;8.85;;
58468;SDS011;44257;44.804;10.220;2022-11-03T02:45:58;20.42;;;10.73;;
58468;SDS011;44257;44.804;10.220;2022-11-03T02:48:25;18.83;;;10.75;;
58468;SDS011;44257;44.804;10.220;2022-11-03T02:50:51;17.38;;;9.13;;
58468;SDS011;44257;44.804;10.220;2022-11-03T02:53:19;18.80;;;9.70;;
58468;SDS011;44257;44.804;10.220;2022-11-03T02:58:31;22.98;;;10.50;;
58468;SDS011;44257;44.804;10.220;2022-11-03T03:03:26;13.07;;;8.98;;
58468;SDS011;44257;44.804;10.220;2022-11-03T03:06:07;13.77;;;9.15;;
58468;SDS011;44257;44.804;10.220;2022-11-03T03:08:36;19.77;;;11.70;;
58468;SDS011;44257;44.804;10.220;2022-11-03T03:11:05;17.90;;;9.93;;
58468;SDS011;44257;44.804;10.220;2022-11-03T03:13:35;20.67;;;11.02;;
58468;SDS011;44257;44.804;10.220;2022-11-03T03:16:11;22.33;;;11.23;;
58468;SDS011;44257;44.804;10.220;2022-11-03T03:18:50;19.92;;;9.75;;
58468;SDS011;44257;44.804;10.220;2022-11-03T03:21:29;15.63;;;8.40;;
58468;SDS011;44257;44.804;10.220;2022-11-03T03:24:04;20.90;;;11.60;;
58468;SDS011;44257;44.804;10.220;2022-11-03T03:26:39;16.35;;;9.43;;
58468;SDS011;44257;44.804;10.220;2022-11-03T03:29:10;19.67;;;9.23;;
58468;SDS011;44257;44.804;10.220;2022-11-03T03:31:41;16.33;;;8.48;;
58468;SDS011;44257;44.804;10.220;2022-11-03T03:34:12;22.02;;;11.77;;
58468;SDS011;44257;44.804;10.220;2022-11-03T03:36:41;18.58;;;9.95;;
58468;SDS011;44257;44.804;10.220;2022-11-03T03:39:11;19.50;;;10.05;;
58468;SDS011;44257;44.804;10.220;2022-11-03T03:41:39;14.40;;;9.25;;
58468;SDS011;44257;44.804;10.220;2022-11-03T03:44:06;19.17;;;10.43;;
58468;SDS011;44257;44.804;10.220;2022-11-03T03:46:35;34.88;;;12.50;;
58468;SDS011;44257;44.804;10.220;2022-11-03T03:49:05;19.23;;;10.67;;
58468;SDS011;44257;44.804;10.220;2022-11-03T03:51:32;18.52;;;10.52;;
58468;SDS011;44257;44.804;10.220;2022-11-03T03:53:58;17.50;;;10.55;;
58468;SDS011;44257;44.804;10.220;2022-11-03T03:56:47;16.20;;;10.90;;
58468;SDS011;44257;44.804;10.220;2022-11-03T03:59:20;18.00;;;10.68;;
58468;SDS011;44257;44.804;10.220;2022-11-03T04:01:46;22.02;;;10.32;;
58468;SDS011;44257;44.804;10.220;2022-11-03T04:04:12;19.40;;;11.55;;
58468;SDS011;44257;44.804;10.220;2022-11-03T04:06:37;20.80;;;10.43;;
58468;SDS011;44257;44.804;10.220;2022-11-03T04:09:03;13.98;;;8.73;;
58468;SDS011;44257;44.804;10.220;2022-11-03T04:11:29;10.45;;;7.72;;
58468;SDS011;44257;44.804;10.220;2022-11-03T04:14:13;17.85;;;9.63;;
58468;SDS011;44257;44.804;10.220;2022-11-03T04:16:58;14.45;;;8.88;;
58468;SDS011;44257;44.804;10.220;2022-11-03T04:19:42;19.13;;;8.80;;
58468;SDS011;44257;44.804;10.220;2022-11-03T04:22:29;17.55;;;10.45;;
58468;SDS011;44257;44.804;10.220;2022-11-03T04:24:56;19.92;;;9.55;;
58468;SDS011;44257;44.804;10.220;2022-11-03T04:27:30;11.90;;;7.03;;
58468;SDS011;44257;44.804;10.220;2022-11-03T04:30:14;16.63;;;8.10;;
58468;SDS011;44257;44.804;10.220;2022-11-03T04:32:42;18.13;;;8.77;;
58468;SDS011;44257;44.804;10.220;2022-11-03T04:35:13;11.50;;;5.97;;
58468;SDS011;44257;44.804;10.220;2022-11-03T04:37:41;13.38;;;6.82;;
58468;SDS011;44257;44.804;10.220;2022-11-03T04:40:12;13.27;;;6.97;;
58468;SDS011;44257;44.804;10.220;2022-11-03T04:42:40;16.00;;;7.18;;
58468;SDS011;44257;44.804;10.220;2022-11-03T04:45:25;10.68;;;6.55;;
58468;SDS011;44257;44.804;10.220;2022-11-03T04:47:54;7.13;;;5.00;;
58468;SDS011;44257;44.804;10.220;2022-11-03T04:50:22;10.20;;;5.90;;
58468;SDS011;44257;44.804;10.220;2022-11-03T04:52:56;7.78;;;5.97;;
58468;SDS011;44257;44.804;10.220;2022-11-03T04:55:22;11.50;;;5.72;;
58468;SDS011;44257;44.804;10.220;2022-11-03T04:57:50;13.23;;;6.90;;
58468;SDS011;44257;44.804;10.220;2022-11-03T05:00:22;10.45;;;6.07;;
58468;SDS011;44257;44.804;10.220;2022-11-03T05:02:48;11.75;;;5.55;;
58468;SDS011;44257;44.804;10.220;2022-11-03T05:05:16;13.75;;;5.80;;
58468;SDS011;44257;44.804;10.220;2022-11-03T05:07:42;10.27;;;5.50;;
58468;SDS011;44257;44.804;10.220;2022-11-03T05:10:11;10.57;;;6.55;;
58468;SDS011;44257;44.804;10.220;2022-11-03T05:12:40;10.75;;;5.78;;
58468;SDS011;44257;44.804;10.220;2022-11-03T05:15:13;10.13;;;4.85;;
58468;SDS011;44257;44.804;10.220;2022-11-03T05:17:59;8.27;;;5.22;;
58468;SDS011;44257;44.804;10.220;2022-11-03T05:20:29;9.55;;;5.38;;
58468;SDS011;44257;44.804;10.220;2022-11-03T05:23:00;6.32;;;3.92;;
58468;SDS011;44257;44.804;10.220;2022-11-03T05:25:42;10.73;;;4.85;;
58468;SDS011;44257;44.804;10.220;2022-11-03T05:28:18;8.25;;;4.43;;
58468;SDS011;44257;44.804;10.220;2022-11-03T05:30:52;6.15;;;3.35;;
58468;SDS011;44257;44.804;10.220;2022-11-03T05:33:29;7.45;;;3.72;;
58468;SDS011;44257;44.804;10.220;2022-11-03T05:35:59;8.65;;;4.47;;
58468;SDS011;44257;44.804;10.220;2022-11-03T05:40:57;8.98;;;4.70;;
58468;SDS011;44257;44.804;10.220;2022-11-03T05:43:24;4.75;;;3.13;;
58468;SDS011;44257;44.804;10.220;2022-11-03T05:45:54;6.00;;;3.97;;
58468;SDS011;44257;44.804;10.220;2022-11-03T05:50:59;7.88;;;4.80;;
58468;SDS011;44257;44.804;10.220;2022-11-03T05:53:35;5.53;;;3.38;;
58468;SDS011;44257;44.804;10.220;2022-11-03T05:56:06;8.20;;;5.57;;
58468;SDS011;44257;44.804;10.220;2022-11-03T05:58:41;8.13;;;4.32;;
58468;SDS011;44257;44.804;10.220;2022-11-03T06:01:16;9.65;;;3.58;;
58468;SDS011;44257;44.804;10.220;2022-11-03T06:03:47;6.47;;;4.05;;
58468;SDS011;44257;44.804;10.220;2022-11-03T06:09:01;6.75;;;3.50;;
58468;SDS011;44257;44.804;10.220;2022-11-03T06:13:57;7.45;;;3.58;;
58468;SDS011;44257;44.804;10.220;2022-11-03T06:19:22;6.93;;;2.70;;
58468;SDS011;44257;44.804;10.220;2022-11-03T06:24:48;6.18;;;3.38;;
58468;SDS011;44257;44.804;10.220;2022-11-03T06:27:19;5.20;;;3.10;;
58468;SDS011;44257;44.804;10.220;2022-11-03T06:30:01;5.22;;;3.00;;
58468;SDS011;44257;44.804;10.220;2022-11-03T06:32:38;7.13;;;4.22;;
58468;SDS011;44257;44.804;10.220;2022-11-03T06:35:04;5.93;;;3.85;;
58468;SDS011;44257;44.804;10.220;2022-11-03T06:37:36;4.15;;;3.65;;
58468;SDS011;44257;44.804;10.220;2022-11-03T06:40:26;4.60;;;3.03;;
58468;SDS011;44257;44.804;10.220;2022-11-03T06:42:50;5.70;;;3.25;;
58468;SDS011;44257;44.804;10.220;2022-11-03T06:47:50;3.35;;;1.98;;
58468;SDS011;44257;44.804;10.220;2022-11-03T06:52:50;3.63;;;2.42;;
58468;SDS011;44257;44.804;10.220;2022-11-03T06:58:15;3.90;;;2.28;;
58468;SDS011;44257;44.804;10.220;2022-11-03T07:00:41;2.55;;;1.90;;
58468;SDS011;44257;44.804;10.220;2022-11-03T07:03:09;3.83;;;2.40;;
58468;SDS011;44257;44.804;10.220;2022-11-03T07:05:39;4.97;;;2.83;;
58468;SDS011;44257;44.804;10.220;2022-11-03T07:08:47;3.35;;;1.45;;
58468;SDS011;44257;44.804;10.220;2022-11-03T07:11:00;4.57;;;2.67;;
58468;SDS011;44257;44.804;10.220;2022-11-03T07:13:29;4.38;;;2.50;;
58468;SDS011;44257;44.804;10.220;2022-11-03T07:15:57;3.55;;;1.65;;
58468;SDS011;44257;44.804;10.220;2022-11-03T07:18:27;3.75;;;2.47;;
58468;SDS011;44257;44.804;10.220;2022-11-03T07:21:17;4.27;;;2.03;;
58468;SDS011;44257;44.804;10.220;2022-11-03T07:24:26;2.95;;;1.63;;
58468;SDS011;44257;44.804;10.220;2022-11-03T07:29:46;5.43;;;2.45;;
58468;SDS011;44257;44.804;10.220;2022-11-03T07:32:20;5.40;;;2.92;;
58468;SDS011;44257;44.804;10.220;2022-11-03T07:34:49;2.60;;;1.65;;
58468;SDS011;44257;44.804;10.220;2022-11-03T07:37:18;3.85;;;2.33;;
58468;SDS011;44257;44.804;10.220;2022-11-03T07:39:47;2.70;;;1.25;;
58468;SDS011;44257;44.804;10.220;2022-11-03T07:42:21;2.53;;;1.67;;
58468;SDS011;44257;44.804;10.220;2022-11-03T07:44:51;3.58;;;2.65;;
58468;SDS011;44257;44.804;10.220;2022-11-03T07:47:23;2.38;;;1.50;;
58468;SDS011;44257;44.804;10.220;2022-11-03T07:49:51;2.05;;;1.17;;
58468;SDS011;44257;44.804;10.220;2022-11-03T07:52:21;1.65;;;1.45;;
58468;SDS011;44257;44.804;10.220;2022-11-03T07:54:49;2.40;;;1.23;;
58468;SDS011;44257;44.804;10.220;2022-11-03T08:00:25;3.65;;;1.83;;
58468;SDS011;44257;44.804;10.220;2022-11-03T08:02:56;6.57;;;1.75;;
58468;SDS011;44257;44.804;10.220;2022-11-03T08:05:25;6.63;;;2.25;;
58468;SDS011;44257;44.804;10.220;2022-11-03T08:07:51;3.17;;;1.58;;
58468;SDS011;44257;44.804;10.220;2022-11-03T08:10:17;3.50;;;1.60;;
58468;SDS011;44257;44.804;10.220;2022-11-03T08:12:42;3.03;;;1.20;;
58468;SDS011;44257;44.804;10.220;2022-11-03T08:15:08;2.88;;;2.00;;
58468;SDS011;44257;44.804;10.220;2022-11-03T08:17:35;2.08;;;1.33;;
58468;SDS011;44257;44.804;10.220;2022-11-03T08:20:01;3.20;;;1.50;;
58468;SDS011;44257;44.804;10.220;2022-11-03T08:22:27;6.00;;;1.73;;
58468;SDS011;44257;44.804;10.220;2022-11-03T08:24:52;2.83;;;1.42;;
58468;SDS011;44257;44.804;10.220;2022-11-03T08:27:18;3.38;;;1.45;;
58468;SDS011;44257;44.804;10.220;2022-11-03T08:29:44;2.47;;;1.40;;
58468;SDS011;44257;44.804;10.220;2022-11-03T08:32:10;3.63;;;1.90;;
58468;SDS011;44257;44.804;10.220;2022-11-03T08:34:36;2.85;;;1.73;;
58468;SDS011;44257;44.804;10.220;2022-11-03T08:37:02;4.50;;;2.03;;
58468;SDS011;44257;44.804;10.220;2022-11-03T08:39:28;3.90;;;2.03;;
58468;SDS011;44257;44.804;10.220;2022-11-03T08:41:55;4.75;;;1.67;;
58468;SDS011;44257;44.804;10.220;2022-11-03T08:44:21;2.42;;;1.45;;
58468;SDS011;44257;44.804;10.220;2022-11-03T08:46:47;4.13;;;1.95;;
58468;SDS011;44257;44.804;10.220;2022-11-03T08:49:12;3.17;;;1.50;;
58468;SDS011;44257;44.804;10.220;2022-11-03T08:51:38;4.63;;;2.42;;
58468;SDS011;44257;44.804;10.220;2022-11-03T08:54:04;4.20;;;1.48;;
58468;SDS011;44257;44.804;10.220;2022-11-03T08:56:30;5.38;;;2.15;;
58468;SDS011;44257;44.804;10.220;2022-11-03T08:58:55;3.35;;;2.15;;
58468;SDS011;44257;44.804;10.220;2022-11-03T09:01:21;4.28;;;2.17;;
58468;SDS011;44257;44.804;10.220;2022-11-03T09:03:47;4.68;;;2.55;;
58468;SDS011;44257;44.804;10.220;2022-11-03T09:06:13;2.13;;;1.42;;
58468;SDS011;44257;44.804;10.220;2022-11-03T09:08:39;3.17;;;1.85;;
58468;SDS011;44257;44.804;10.220;2022-11-03T09:11:04;3.42;;;2.08;;
58468;SDS011;44257;44.804;10.220;2022-11-03T09:13:30;1.77;;;1.35;;
58468;SDS011;44257;44.804;10.220;2022-11-03T09:15:56;4.18;;;1.70;;
58468;SDS011;44257;44.804;10.220;2022-11-03T09:18:22;1.40;;;0.88;;
58468;SDS011;44257;44.804;10.220;2022-11-03T09:20:47;3.05;;;1.45;;
58468;SDS011;44257;44.804;10.220;2022-11-03T09:23:14;2.95;;;1.20;;
58468;SDS011;44257;44.804;10.220;2022-11-03T09:25:40;4.47;;;2.17;;
58468;SDS011;44257;44.804;10.220;2022-11-03T09:28:05;4.15;;;2.17;;
58468;SDS011;44257;44.804;10.220;2022-11-03T09:30:31;3.72;;;1.95;;
58468;SDS011;44257;44.804;10.220;2022-11-03T09:32:57;3.25;;;2.17;;
58468;SDS011;44257;44.804;10.220;2022-11-03T09:35:23;7.13;;;2.60;;
58468;SDS011;44257;44.804;10.220;2022-11-03T09:37:49;3.78;;;2.13;;
58468;SDS011;44257;44.804;10.220;2022-11-03T09:40:14;4.03;;;2.00;;
58468;SDS011;44257;44.804;10.220;2022-11-03T09:42:41;4.45;;;2.00;;
58468;SDS011;44257;44.804;10.220;2022-11-03T09:45:08;3.15;;;1.63;;
58468;SDS011;44257;44.804;10.220;2022-11-03T09:47:40;4.43;;;2.33;;
58468;SDS011;44257;44.804;10.220;2022-11-03T09:50:14;3.58;;;1.98;;
58468;SDS011;44257;44.804;10.220;2022-11-03T09:52:43;2.95;;;1.90;;
58468;SDS011;44257;44.804;10.220;2022-11-03T09:55:14;6.00;;;2.53;;
58468;SDS011;44257;44.804;10.220;2022-11-03T09:57:44;4.25;;;2.05;;
58468;SDS011;44257;44.804;10.220;2022-11-03T10:00:20;5.45;;;2.17;;
58468;SDS011;44257;44.804;10.220;2022-11-03T10:02:48;3.75;;;2.00;;
58468;SDS011;44257;44.804;10.220;2022-11-03T10:05:18;3.33;;;2.30;;
58468;SDS011;44257;44.804;10.220;2022-11-03T10:07:48;2.90;;;1.63;;
58468;SDS011;44257;44.804;10.220;2022-11-03T10:10:25;4.45;;;2.47;;
58468;SDS011;44257;44.804;10.220;2022-11-03T10:12:52;3.42;;;2.38;;
58468;SDS011;44257;44.804;10.220;2022-11-03T10:15:20;3.65;;;1.95;;
58468;SDS011;44257;44.804;10.220;2022-11-03T10:17:47;4.13;;;2.03;;
58468;SDS011;44257;44.804;10.220;2022-11-03T10:20:15;4.10;;;2.05;;
58468;SDS011;44257;44.804;10.220;2022-11-03T10:22:44;4.28;;;2.42;;
58468;SDS011;44257;44.804;10.220;2022-11-03T10:28:19;3.47;;;2.25;;
58468;SDS011;44257;44.804;10.220;2022-11-03T10:30:51;5.50;;;2.60;;
58468;SDS011;44257;44.804;10.220;2022-11-03T10:33:29;3.45;;;2.15;;
58468;SDS011;44257;44.804;10.220;2022-11-03T10:35:57;3.92;;;2.15;;
58468;SDS011;44257;44.804;10.220;2022-11-03T10:38:25;4.57;;;2.35;;
58468;SDS011;44257;44.804;10.220;2022-11-03T10:40:56;4.32;;;2.25;;
58468;SDS011;44257;44.804;10.220;2022-11-03T10:43:34;4.68;;;2.33;;
58468;SDS011;44257;44.804;10.220;2022-11-03T10:48:40;9.25;;;2.72;;
58468;SDS011;44257;44.804;10.220;2022-11-03T10:51:10;4.18;;;1.83;;
58468;SDS011;44257;44.804;10.220;2022-11-03T10:53:37;3.80;;;2.78;;
58468;SDS011;44257;44.804;10.220;2022-11-03T10:56:03;4.25;;;2.63;;
58468;SDS011;44257;44.804;10.220;2022-11-03T10:58:30;6.82;;;2.90;;
58468;SDS011;44257;44.804;10.220;2022-11-03T11:00:56;4.68;;;2.30;;
58468;SDS011;44257;44.804;10.220;2022-11-03T11:03:22;4.95;;;2.78;;
58468;SDS011;44257;44.804;10.220;2022-11-03T11:05:48;4.65;;;2.20;;
58468;SDS011;44257;44.804;10.220;2022-11-03T11:08:15;5.47;;;2.53;;
58468;SDS011;44257;44.804;10.220;2022-11-03T11:10:46;4.50;;;2.47;;
58468;SDS011;44257;44.804;10.220;2022-11-03T11:15:58;4.93;;;2.63;;
58468;SDS011;44257;44.804;10.220;2022-11-03T11:20:55;5.15;;;2.60;;
58468;SDS011;44257;44.804;10.220;2022-11-03T11:28:40;3.25;;;2.25;;
58468;SDS011;44257;44.804;10.220;2022-11-03T11:36:46;7.00;;;3.75;;
58468;SDS011;44257;44.804;10.220;2022-11-03T11:50:07;6.10;;;3.47;;
58468;SDS011;44257;44.804;10.220;2022-11-03T11:52:46;6.32;;;2.38;;
58468;SDS011;44257;44.804;10.220;2022-11-03T11:57:49;9.05;;;3.15;;
58468;SDS011;44257;44.804;10.220;2022-11-03T12:00:23;9.00;;;3.80;;
58468;SDS011;44257;44.804;10.220;2022-11-03T12:02:51;11.68;;;4.45;;
58468;SDS011;44257;44.804;10.220;2022-11-03T12:05:18;8.45;;;3.88;;
58468;SDS011;44257;44.804;10.220;2022-11-03T12:07:46;8.85;;;4.35;;
58468;SDS011;44257;44.804;10.220;2022-11-03T12:10:16;9.32;;;5.07;;
58468;SDS011;44257;44.804;10.220;2022-11-03T12:12:44;10.38;;;4.90;;
58468;SDS011;44257;44.804;10.220;2022-11-03T12:20:59;5.93;;;3.67;;
58468;SDS011;44257;44.804;10.220;2022-11-03T12:23:33;8.68;;;4.10;;
58468;SDS011;44257;44.804;10.220;2022-11-03T12:26:04;8.38;;;4.78;;
58468;SDS011;44257;44.804;10.220;2022-11-03T12:28:33;10.75;;;6.63;;
58468;SDS011;44257;44.804;10.220;2022-11-03T12:31:02;12.88;;;5.13;;
58468;SDS011;44257;44.804;10.220;2022-11-03T12:33:28;9.20;;;4.47;;
58468;SDS011;44257;44.804;10.220;2022-11-03T12:35:54;12.65;;;3.65;;
58468;SDS011;44257;44.804;10.220;2022-11-03T12:38:21;9.55;;;4.75;;
58468;SDS011;44257;44.804;10.220;2022-11-03T12:40:48;13.90;;;5.70;;
58468;SDS011;44257;44.804;10.220;2022-11-03T12:43:15;7.10;;;4.43;;
58468;SDS011;44257;44.804;10.220;2022-11-03T12:45:41;7.20;;;4.00;;
58468;SDS011;44257;44.804;10.220;2022-11-03T12:48:07;13.10;;;4.68;;
58468;SDS011;44257;44.804;10.220;2022-11-03T12:50:33;9.88;;;4.88;;
58468;SDS011;44257;44.804;10.220;2022-11-03T12:53:02;9.60;;;5.07;;
58468;SDS011;44257;44.804;10.220;2022-11-03T12:55:28;10.98;;;5.03;;
58468;SDS011;44257;44.804;10.220;2022-11-03T12:57:54;9.57;;;4.50;;
58468;SDS011;44257;44.804;10.220;2022-11-03T13:00:20;10.23;;;5.45;;
58468;SDS011;44257;44.804;10.220;2022-11-03T13:02:46;8.02;;;4.60;;
58468;SDS011;44257;44.804;10.220;2022-11-03T13:05:11;9.70;;;5.10;;
58468;SDS011;44257;44.804;10.220;2022-11-03T13:07:42;9.43;;;5.05;;
58468;SDS011;44257;44.804;10.220;2022-11-03T13:10:08;7.63;;;4.40;;
58468;SDS011;44257;44.804;10.220;2022-11-03T13:12:34;9.90;;;4.78;;
58468;SDS011;44257;44.804;10.220;2022-11-03T13:15:05;11.18;;;4.53;;
58468;SDS011;44257;44.804;10.220;2022-11-03T13:17:32;8.77;;;4.68;;
58468;SDS011;44257;44.804;10.220;2022-11-03T13:19:58;9.65;;;4.75;;
58468;SDS011;44257;44.804;10.220;2022-11-03T13:22:24;8.30;;;4.50;;
58468;SDS011;44257;44.804;10.220;2022-11-03T13:24:50;12.75;;;5.38;;
58468;SDS011;44257;44.804;10.220;2022-11-03T13:27:16;8.98;;;5.03;;
58468;SDS011;44257;44.804;10.220;2022-11-03T13:29:41;7.75;;;4.20;;
58468;SDS011;44257;44.804;10.220;2022-11-03T13:32:07;9.52;;;4.60;;
58468;SDS011;44257;44.804;10.220;2022-11-03T13:34:33;11.25;;;4.47;;
58468;SDS011;44257;44.804;10.220;2022-11-03T13:36:59;9.20;;;4.15;;
58468;SDS011;44257;44.804;10.220;2022-11-03T13:39:25;10.32;;;4.30;;
58468;SDS011;44257;44.804;10.220;2022-11-03T13:41:51;8.32;;;4.88;;
58468;SDS011;44257;44.804;10.220;2022-11-03T13:44:17;6.78;;;3.97;;
58468;SDS011;44257;44.804;10.220;2022-11-03T13:46:42;9.40;;;3.92;;
58468;SDS011;44257;44.804;10.220;2022-11-03T13:49:08;5.90;;;3.17;;
58468;SDS011;44257;44.804;10.220;2022-11-03T13:51:34;10.20;;;4.28;;
58468;SDS011;44257;44.804;10.220;2022-11-03T13:54:00;18.83;;;5.28;;
58468;SDS011;44257;44.804;10.220;2022-11-03T13:56:26;10.18;;;3.75;;
58468;SDS011;44257;44.804;10.220;2022-11-03T13:58:51;5.63;;;3.40;;
58468;SDS011;44257;44.804;10.220;2022-11-03T14:01:17;7.93;;;3.78;;
58468;SDS011;44257;44.804;10.220;2022-11-03T14:03:43;8.18;;;4.60;;
58468;SDS011;44257;44.804;10.220;2022-11-03T14:06:09;9.55;;;5.00;;
58468;SDS011;44257;44.804;10.220;2022-11-03T14:08:34;10.30;;;4.32;;
58468;SDS011;44257;44.804;10.220;2022-11-03T14:11:01;8.82;;;3.88;;
58468;SDS011;44257;44.804;10.220;2022-11-03T14:13:46;12.13;;;3.75;;
58468;SDS011;44257;44.804;10.220;2022-11-03T14:16:12;7.50;;;3.42;;
58468;SDS011;44257;44.804;10.220;2022-11-03T14:18:38;8.82;;;3.33;;
58468;SDS011;44257;44.804;10.220;2022-11-03T14:21:04;9.75;;;3.45;;
58468;SDS011;44257;44.804;10.220;2022-11-03T14:23:30;5.53;;;3.33;;
58468;SDS011;44257;44.804;10.220;2022-11-03T14:25:56;4.72;;;2.78;;
58468;SDS011;44257;44.804;10.220;2022-11-03T14:28:21;8.35;;;3.97;;
58468;SDS011;44257;44.804;10.220;2022-11-03T14:30:47;8.65;;;4.72;;
58468;SDS011;44257;44.804;10.220;2022-11-03T14:33:13;10.07;;;5.28;;
58468;SDS011;44257;44.804;10.220;2022-11-03T14:35:39;9.23;;;4.70;;
58468;SDS011;44257;44.804;10.220;2022-11-03T14:38:04;9.75;;;4.47;;
58468;SDS011;44257;44.804;10.220;2022-11-03T14:40:30;10.93;;;4.28;;
58468;SDS011;44257;44.804;10.220;2022-11-03T14:43:14;8.15;;;5.00;;
58468;SDS011;44257;44.804;10.220;2022-11-03T14:45:40;11.05;;;5.15;;
58468;SDS011;44257;44.804;10.220;2022-11-03T14:48:06;7.82;;;4.88;;
58468;SDS011;44257;44.804;10.220;2022-11-03T14:50:32;5.18;;;3.42;;
58468;SDS011;44257;44.804;10.220;2022-11-03T14:52:58;9.95;;;4.28;;
58468;SDS011;44257;44.804;10.220;2022-11-03T14:55:23;7.68;;;5.43;;
58468;SDS011;44257;44.804;10.220;2022-11-03T14:57:49;8.45;;;4.55;;
58468;SDS011;44257;44.804;10.220;2022-11-03T15:00:15;8.45;;;5.32;;
58468;SDS011;44257;44.804;10.220;2022-11-03T15:02:41;9.93;;;4.88;;
58468;SDS011;44257;44.804;10.220;2022-11-03T15:05:07;11.55;;;4.88;;
58468;SDS011;44257;44.804;10.220;2022-11-03T15:07:53;7.45;;;3.65;;
58468;SDS011;44257;44.804;10.220;2022-11-03T15:10:18;7.35;;;4.00;;
58468;SDS011;44257;44.804;10.220;2022-11-03T15:12:44;10.02;;;4.72;;
58468;SDS011;44257;44.804;10.220;2022-11-03T15:15:10;8.63;;;5.35;;
58468;SDS011;44257;44.804;10.220;2022-11-03T15:17:36;10.18;;;5.22;;
58468;SDS011;44257;44.804;10.220;2022-11-03T15:20:01;11.23;;;4.68;;
58468;SDS011;44257;44.804;10.220;2022-11-03T15:22:28;10.88;;;4.68;;
58468;SDS011;44257;44.804;10.220;2022-11-03T15:24:53;7.72;;;4.70;;
58468;SDS011;44257;44.804;10.220;2022-11-03T15:27:19;8.60;;;4.28;;
58468;SDS011;44257;44.804;10.220;2022-11-03T15:29:45;8.80;;;5.15;;
58468;SDS011;44257;44.804;10.220;2022-11-03T15:32:11;7.03;;;4.93;;
58468;SDS011;44257;44.804;10.220;2022-11-03T15:34:37;10.27;;;5.05;;
58468;SDS011;44257;44.804;10.220;2022-11-03T15:37:03;9.45;;;5.70;;
58468;SDS011;44257;44.804;10.220;2022-11-03T15:39:29;9.38;;;4.82;;
58468;SDS011;44257;44.804;10.220;2022-11-03T15:41:55;6.25;;;4.13;;
58468;SDS011;44257;44.804;10.220;2022-11-03T15:44:21;8.98;;;5.30;;
58468;SDS011;44257;44.804;10.220;2022-11-03T15:46:47;8.70;;;4.68;;
58468;SDS011;44257;44.804;10.220;2022-11-03T15:49:13;9.75;;;5.38;;
58468;SDS011;44257;44.804;10.220;2022-11-03T15:51:38;8.95;;;4.10;;
58468;SDS011;44257;44.804;10.220;2022-11-03T15:54:04;10.25;;;4.75;;
58468;SDS011;44257;44.804;10.220;2022-11-03T15:56:30;10.70;;;5.30;;
58468;SDS011;44257;44.804;10.220;2022-11-03T15:58:56;9.50;;;4.82;;
58468;SDS011;44257;44.804;10.220;2022-11-03T16:01:22;13.95;;;5.13;;
58468;SDS011;44257;44.804;10.220;2022-11-03T16:03:48;9.27;;;5.05;;
58468;SDS011;44257;44.804;10.220;2022-11-03T16:06:13;15.45;;;5.78;;